PWSweather.com
Personal Weather Stations
Station Observations
TARRYHILL
Tarrytown, NY 10591

Tarrytown, NY 10591

Lat: 41.05185, Lon: -73.85296

Elevation: 341

Station Type: Davis Vantage Vue

www.tarrytownnyweather.com

High Low Average
Temperature 56.3°F13.5°F 41.1°F5.1°F 46.0°F7.8°F
Dew Point 43.5°F6.4°F 22.9°F-5.1°F 29.4°F-1.4°F
Winds 6.8 mph SE10.9 mph SE Calm Calm 1.3 mph 2.1 mph
Wind Gusts 13.0 mph20.9 mph -- 2.8 mph4.5 mph
Humidity 86% 37% 53%
Pressure 30.20 in1022.70 in 30.01 in1016.30 in -
Precipitation 0.00 in0.00 in - -
Hour Temp Dew Point Humidity Winds Wind Gusts Pressure Precip Precip Rate Daily Precip Total
12:00 AM 41.1°F5.1°C 22.9°F-5.1°C 48% 2.5 mph SSE4.0 kmh SSE 7.0 mph11.3 kmh 30.18 in1022.0 mb 0.00 in0.0 mm 0.00 in/hr0.0 mm/hr 0.00 in0.0 mm
12:10 AM 41.1°F5.1°C 23.4°F-4.8°C 49% 4.0 mph SW6.4 kmh SW 9.0 mph14.5 kmh 30.19 in1022.4 mb 0.00 in0.0 mm 0.00 in/hr0.0 mm/hr 0.00 in0.0 mm
12:20 AM 41.1°F5.1°C 23.4°F-4.8°C 49% 5.1 mph WSW8.2 kmh WSW 13.0 mph20.9 kmh 30.18 in1022.0 mb 0.00 in0.0 mm 0.00 in/hr0.0 mm/hr 0.00 in0.0 mm
12:30 AM 41.2°F5.1°C 23.4°F-4.8°C 49% 4.3 mph SSW6.9 kmh SSW 10.0 mph16.1 kmh 30.18 in1022.0 mb 0.00 in0.0 mm 0.00 in/hr0.0 mm/hr 0.00 in0.0 mm
12:40 AM 41.2°F5.1°C 23.0°F-5.0°C 48% 4.2 mph SW6.8 kmh SW 9.0 mph14.5 kmh 30.18 in1022.0 mb 0.00 in0.0 mm 0.00 in/hr0.0 mm/hr 0.00 in0.0 mm
12:50 AM 41.3°F5.2°C 23.1°F-4.9°C 48% 6.8 mph SE10.9 kmh SE 13.0 mph20.9 kmh 30.17 in1021.7 mb 0.00 in0.0 mm 0.00 in/hr0.0 mm/hr 0.00 in0.0 mm
01:00 AM 41.4°F5.2°C 23.2°F-4.9°C 48% 1.3 mph SE2.1 kmh SE 3.0 mph4.8 kmh 30.17 in1021.7 mb 0.00 in0.0 mm 0.00 in/hr0.0 mm/hr 0.00 in0.0 mm
01:10 AM 41.5°F5.3°C 23.2°F-4.9°C 48% 3.8 mph SW6.1 kmh SW 7.0 mph11.3 kmh 30.17 in1021.7 mb 0.00 in0.0 mm 0.00 in/hr0.0 mm/hr 0.00 in0.0 mm
01:20 AM 41.6°F5.3°C 23.3°F-4.8°C 48% 1.4 mph SW2.3 kmh SW 2.0 mph3.2 kmh 30.17 in1021.7 mb 0.00 in0.0 mm 0.00 in/hr0.0 mm/hr 0.00 in0.0 mm
01:30 AM 41.6°F5.3°C 23.3°F-4.8°C 48% 1.4 mph SE2.3 kmh SE 3.0 mph4.8 kmh 30.17 in1021.7 mb 0.00 in0.0 mm 0.00 in/hr0.0 mm/hr 0.00 in0.0 mm
01:40 AM 41.5°F5.3°C 23.3°F-4.8°C 48% 2.2 mph S3.5 kmh S 6.0 mph9.7 kmh 30.18 in1022.0 mb 0.00 in0.0 mm 0.00 in/hr0.0 mm/hr 0.00 in0.0 mm
01:50 AM 41.6°F5.3°C 23.3°F-4.8°C 48% 0.5 mph SSE0.8 kmh SSE 4.0 mph6.4 kmh 30.17 in1021.7 mb 0.00 in0.0 mm 0.00 in/hr0.0 mm/hr 0.00 in0.0 mm
02:00 AM 41.6°F5.3°C 23.3°F-4.8°C 48% 0.9 mph S1.4 kmh S 4.0 mph6.4 kmh 30.17 in1021.7 mb 0.00 in0.0 mm 0.00 in/hr0.0 mm/hr 0.00 in0.0 mm
02:10 AM 41.6°F5.3°C 23.8°F-4.6°C 49% 0.2 mph SW0.3 kmh SW 2.0 mph3.2 kmh 30.17 in1021.7 mb 0.00 in0.0 mm 0.00 in/hr0.0 mm/hr 0.00 in0.0 mm
02:20 AM 41.5°F5.3°C 23.2°F-4.9°C 48% 0.8 mph SW1.3 kmh SW 3.0 mph4.8 kmh 30.17 in1021.7 mb 0.00 in0.0 mm 0.00 in/hr0.0 mm/hr 0.00 in0.0 mm
02:30 AM 41.5°F5.3°C 23.7°F-4.6°C 49% 0.6 mph SW1.0 kmh SW 2.0 mph3.2 kmh 30.16 in1021.3 mb 0.00 in0.0 mm 0.00 in/hr0.0 mm/hr 0.00 in0.0 mm
02:40 AM 41.6°F5.3°C 23.8°F-4.6°C 49% 1.2 mph SW1.9 kmh SW 5.0 mph8.0 kmh 30.17 in1021.7 mb 0.00 in0.0 mm 0.00 in/hr0.0 mm/hr 0.00 in0.0 mm
02:50 AM 41.8°F5.4°C 23.5°F-4.7°C 48% 4.2 mph SW6.8 kmh SW 3.0 mph4.8 kmh 30.17 in1021.7 mb 0.00 in0.0 mm 0.00 in/hr0.0 mm/hr 0.00 in0.0 mm
03:00 AM 41.8°F5.4°C 23.5°F-4.7°C 48% 1.1 mph S1.8 kmh S -- 30.17 in1021.7 mb 0.00 in0.0 mm 0.00 in/hr0.0 mm/hr 0.00 in0.0 mm
03:10 AM 41.8°F5.4°C 23.5°F-4.7°C 48% 1.1 mph SSE1.8 kmh SSE 3.0 mph4.8 kmh 30.16 in1021.3 mb 0.00 in0.0 mm 0.00 in/hr0.0 mm/hr 0.00 in0.0 mm
03:20 AM 41.9°F5.5°C 23.6°F-4.7°C 48% 2.1 mph SW3.4 kmh SW 4.0 mph6.4 kmh 30.16 in1021.3 mb 0.00 in0.0 mm 0.00 in/hr0.0 mm/hr 0.00 in0.0 mm
03:30 AM 41.9°F5.5°C 23.6°F-4.7°C 48% 2.3 mph W3.7 kmh W 5.0 mph8.0 kmh 30.18 in1022.0 mb 0.00 in0.0 mm 0.00 in/hr0.0 mm/hr 0.00 in0.0 mm
03:40 AM 41.7°F5.4°C 24.0°F-4.4°C 49% 1.3 mph SW2.1 kmh SW 3.0 mph4.8 kmh 30.17 in1021.7 mb 0.00 in0.0 mm 0.00 in/hr0.0 mm/hr 0.00 in0.0 mm
03:50 AM 41.6°F5.3°C 23.8°F-4.6°C 49% 1.4 mph SW2.3 kmh SW 3.0 mph4.8 kmh 30.16 in1021.3 mb 0.00 in0.0 mm 0.00 in/hr0.0 mm/hr 0.00 in0.0 mm
04:00 AM 41.6°F5.3°C 24.3°F-4.3°C 50% Calm Calm 1.0 mph1.6 kmh 30.16 in1021.3 mb 0.00 in0.0 mm 0.00 in/hr0.0 mm/hr 0.00 in0.0 mm
04:10 AM 41.5°F5.3°C 23.8°F-4.6°C 49% 0.4 mph SW0.6 kmh SW 2.0 mph3.2 kmh 30.17 in1021.7 mb 0.00 in0.0 mm 0.00 in/hr0.0 mm/hr 0.00 in0.0 mm
04:20 AM 41.5°F5.3°C 24.2°F-4.3°C 50% 1.0 mph SW1.6 kmh SW 3.0 mph4.8 kmh 30.16 in1021.3 mb 0.00 in0.0 mm 0.00 in/hr0.0 mm/hr 0.00 in0.0 mm
04:30 AM 41.4°F5.2°C 24.1°F-4.4°C 50% 2.9 mph SSE4.7 kmh SSE 6.0 mph9.7 kmh 30.16 in1021.3 mb 0.00 in0.0 mm 0.00 in/hr0.0 mm/hr 0.00 in0.0 mm
04:40 AM 41.5°F5.3°C 24.2°F-4.3°C 50% 3.8 mph SW6.1 kmh SW 5.0 mph8.0 kmh 30.16 in1021.3 mb 0.00 in0.0 mm 0.00 in/hr0.0 mm/hr 0.00 in0.0 mm
04:50 AM 41.5°F5.3°C 24.2°F-4.3°C 50% 3.7 mph SW6.0 kmh SW 5.0 mph8.0 kmh 30.16 in1021.3 mb 0.00 in0.0 mm 0.00 in/hr0.0 mm/hr 0.00 in0.0 mm
05:00 AM 41.6°F5.3°C 24.3°F-4.3°C 50% 4.5 mph SW7.2 kmh SW 7.0 mph11.3 kmh 30.16 in1021.3 mb 0.00 in0.0 mm 0.00 in/hr0.0 mm/hr 0.00 in0.0 mm
05:10 AM 41.6°F5.3°C 24.3°F-4.3°C 50% 3.4 mph SW5.5 kmh SW 7.0 mph11.3 kmh 30.16 in1021.3 mb 0.00 in0.0 mm 0.00 in/hr0.0 mm/hr 0.00 in0.0 mm
05:20 AM 41.7°F5.4°C 24.9°F-3.9°C 51% 3.1 mph SW5.0 kmh SW 6.0 mph9.7 kmh 30.17 in1021.7 mb 0.00 in0.0 mm 0.00 in/hr0.0 mm/hr 0.00 in0.0 mm
05:30 AM 41.7°F5.4°C 24.9°F-3.9°C 51% 2.7 mph SW4.3 kmh SW 5.0 mph8.0 kmh 30.18 in1022.0 mb 0.00 in0.0 mm 0.00 in/hr0.0 mm/hr 0.00 in0.0 mm
05:40 AM 41.7°F5.4°C 24.9°F-3.9°C 51% 2.7 mph SW4.3 kmh SW 6.0 mph9.7 kmh 30.17 in1021.7 mb 0.00 in0.0 mm 0.00 in/hr0.0 mm/hr 0.00 in0.0 mm
05:50 AM 41.6°F5.3°C 25.3°F-3.7°C 52% 2.7 mph SSE4.3 kmh SSE 8.0 mph12.9 kmh 30.17 in1021.7 mb 0.00 in0.0 mm 0.00 in/hr0.0 mm/hr 0.00 in0.0 mm
06:00 AM 41.5°F5.3°C 25.2°F-3.8°C 52% 1.3 mph S2.1 kmh S 2.0 mph3.2 kmh 30.17 in1021.7 mb 0.00 in0.0 mm 0.00 in/hr0.0 mm/hr 0.00 in0.0 mm
06:10 AM 41.3°F5.2°C 25.0°F-3.9°C 52% 1.0 mph SW1.6 kmh SW 2.0 mph3.2 kmh 30.18 in1022.0 mb 0.00 in0.0 mm 0.00 in/hr0.0 mm/hr 0.00 in0.0 mm
06:20 AM 41.1°F5.1°C 24.8°F-4.0°C 52% 2.6 mph ESE4.2 kmh ESE 5.0 mph8.0 kmh 30.18 in1022.0 mb 0.00 in0.0 mm 0.00 in/hr0.0 mm/hr 0.00 in0.0 mm
06:30 AM 41.1°F5.1°C 25.3°F-3.7°C 53% 0.1 mph SW0.2 kmh SW 1.0 mph1.6 kmh 30.18 in1022.0 mb 0.00 in0.0 mm 0.00 in/hr0.0 mm/hr 0.00 in0.0 mm
06:40 AM 41.1°F5.1°C 24.8°F-4.0°C 52% Calm Calm 2.0 mph3.2 kmh 30.18 in1022.0 mb 0.00 in0.0 mm 0.00 in/hr0.0 mm/hr 0.00 in0.0 mm
06:50 AM 41.2°F5.1°C 24.9°F-3.9°C 52% 1.2 mph SSE1.9 kmh SSE 1.0 mph1.6 kmh 30.18 in1022.0 mb 0.00 in0.0 mm 0.00 in/hr0.0 mm/hr 0.00 in0.0 mm
07:00 AM 41.2°F5.1°C 24.9°F-3.9°C 52% Calm Calm 1.0 mph1.6 kmh 30.18 in1022.0 mb 0.00 in0.0 mm 0.00 in/hr0.0 mm/hr 0.00 in0.0 mm
07:10 AM 41.3°F5.2°C 24.5°F-4.2°C 51% Calm Calm -- 30.18 in1022.0 mb 0.00 in0.0 mm 0.00 in/hr0.0 mm/hr 0.00 in0.0 mm
07:20 AM 41.4°F5.2°C 24.6°F-4.1°C 51% 1.5 mph SW2.4 kmh SW 2.0 mph3.2 kmh 30.19 in1022.4 mb 0.00 in0.0 mm 0.00 in/hr0.0 mm/hr 0.00 in0.0 mm
07:30 AM 41.5°F5.3°C 25.2°F-3.8°C 52% 0.1 mph NNW0.2 kmh NNW 1.0 mph1.6 kmh 30.19 in1022.4 mb 0.00 in0.0 mm 0.00 in/hr0.0 mm/hr 0.00 in0.0 mm
07:40 AM 41.6°F5.3°C 25.3°F-3.7°C 52% 0.1 mph WSW0.2 kmh WSW 1.0 mph1.6 kmh 30.19 in1022.4 mb 0.00 in0.0 mm 0.00 in/hr0.0 mm/hr 0.00 in0.0 mm
07:50 AM 41.7°F5.4°C 24.9°F-3.9°C 51% 0.6 mph SSW1.0 kmh SSW 2.0 mph3.2 kmh 30.20 in1022.7 mb 0.00 in0.0 mm 0.00 in/hr0.0 mm/hr 0.00 in0.0 mm
08:00 AM 41.9°F5.5°C 25.1°F-3.8°C 51% 0.9 mph SSE1.4 kmh SSE 1.0 mph1.6 kmh 30.20 in1022.7 mb 0.00 in0.0 mm 0.00 in/hr0.0 mm/hr 0.00 in0.0 mm
08:10 AM 42.2°F5.7°C 24.9°F-3.9°C 50% 1.1 mph WSW1.8 kmh WSW 3.0 mph4.8 kmh 30.20 in1022.7 mb 0.00 in0.0 mm 0.00 in/hr0.0 mm/hr 0.00 in0.0 mm
08:20 AM 42.4°F5.8°C 24.6°F-4.1°C 49% 3.1 mph WSW5.0 kmh WSW 7.0 mph11.3 kmh 30.20 in1022.7 mb 0.00 in0.0 mm 0.00 in/hr0.0 mm/hr 0.00 in0.0 mm
08:30 AM 42.6°F5.9°C 25.2°F-3.8°C 50% 0.9 mph SSW1.4 kmh SSW 4.0 mph6.4 kmh 30.19 in1022.4 mb 0.00 in0.0 mm 0.00 in/hr0.0 mm/hr 0.00 in0.0 mm
08:40 AM 42.8°F6.0°C 24.9°F-3.9°C 49% 4.3 mph SE6.9 kmh SE 8.0 mph12.9 kmh 30.19 in1022.4 mb 0.00 in0.0 mm 0.00 in/hr0.0 mm/hr 0.00 in0.0 mm
08:50 AM 43.2°F6.2°C 25.3°F-3.7°C 49% 0.9 mph SW1.4 kmh SW 4.0 mph6.4 kmh 30.20 in1022.7 mb 0.00 in0.0 mm 0.00 in/hr0.0 mm/hr 0.00 in0.0 mm
09:00 AM 43.4°F6.3°C 25.0°F-3.9°C 48% 3.4 mph SSW5.5 kmh SSW 6.0 mph9.7 kmh 30.20 in1022.7 mb 0.00 in0.0 mm 0.00 in/hr0.0 mm/hr 0.00 in0.0 mm
09:10 AM 43.6°F6.4°C 25.2°F-3.8°C 48% 4.3 mph SW6.9 kmh SW 6.0 mph9.7 kmh 30.20 in1022.7 mb 0.00 in0.0 mm 0.00 in/hr0.0 mm/hr 0.00 in0.0 mm
09:20 AM 43.7°F6.5°C 25.2°F-3.8°C 48% 5.6 mph SW9.0 kmh SW 9.0 mph14.5 kmh 30.20 in1022.7 mb 0.00 in0.0 mm 0.00 in/hr0.0 mm/hr 0.00 in0.0 mm
09:30 AM 43.6°F6.4°C 25.7°F-3.5°C 49% 4.9 mph SW7.9 kmh SW 6.0 mph9.7 kmh 30.20 in1022.7 mb 0.00 in0.0 mm 0.00 in/hr0.0 mm/hr 0.00 in0.0 mm
09:40 AM 43.7°F6.5°C 25.3°F-3.7°C 48% 3.7 mph SW6.0 kmh SW 7.0 mph11.3 kmh 30.19 in1022.4 mb 0.00 in0.0 mm 0.00 in/hr0.0 mm/hr 0.00 in0.0 mm
09:50 AM 43.9°F6.6°C 26.0°F-3.3°C 49% 3.3 mph SW5.3 kmh SW 3.0 mph4.8 kmh 30.20 in1022.7 mb 0.00 in0.0 mm 0.00 in/hr0.0 mm/hr 0.00 in0.0 mm
10:00 AM 44.4°F6.9°C 25.9°F-3.4°C 48% 3.3 mph SW5.3 kmh SW 3.0 mph4.8 kmh 30.19 in1022.4 mb 0.00 in0.0 mm 0.00 in/hr0.0 mm/hr 0.00 in0.0 mm
10:10 AM 44.6°F7.0°C 26.1°F-3.3°C 48% 2.7 mph WSW4.3 kmh WSW 7.0 mph11.3 kmh 30.19 in1022.4 mb 0.00 in0.0 mm 0.00 in/hr0.0 mm/hr 0.00 in0.0 mm
10:20 AM 44.8°F7.1°C 26.3°F-3.2°C 48% 2.2 mph SSW3.5 kmh SSW 5.0 mph8.0 kmh 30.19 in1022.4 mb 0.00 in0.0 mm 0.00 in/hr0.0 mm/hr 0.00 in0.0 mm
10:30 AM 45.5°F7.5°C 26.4°F-3.1°C 47% 4.6 mph S7.4 kmh S 6.0 mph9.7 kmh 30.19 in1022.4 mb 0.00 in0.0 mm 0.00 in/hr0.0 mm/hr 0.00 in0.0 mm
10:40 AM 46.3°F7.9°C 26.6°F-3.0°C 46% 0.8 mph S1.3 kmh S 2.0 mph3.2 kmh 30.19 in1022.4 mb 0.00 in0.0 mm 0.00 in/hr0.0 mm/hr 0.00 in0.0 mm
10:50 AM 46.7°F8.2°C 26.5°F-3.1°C 45% 2.1 mph SW3.4 kmh SW 4.0 mph6.4 kmh 30.18 in1022.0 mb 0.00 in0.0 mm 0.00 in/hr0.0 mm/hr 0.00 in0.0 mm
11:00 AM 47.5°F8.6°C 26.6°F-3.0°C 44% 2.5 mph S4.0 kmh S 4.0 mph6.4 kmh 30.18 in1022.0 mb 0.00 in0.0 mm 0.00 in/hr0.0 mm/hr 0.00 in0.0 mm
11:10 AM 48.2°F9.0°C 26.7°F-2.9°C 43% 2.7 mph S4.3 kmh S 4.0 mph6.4 kmh 30.18 in1022.0 mb 0.00 in0.0 mm 0.00 in/hr0.0 mm/hr 0.00 in0.0 mm
11:20 AM 48.0°F8.9°C 27.1°F-2.7°C 44% 2.7 mph SSW4.3 kmh SSW 4.0 mph6.4 kmh 30.17 in1021.7 mb 0.00 in0.0 mm 0.00 in/hr0.0 mm/hr 0.00 in0.0 mm
11:30 AM 48.3°F9.1°C 27.4°F-2.6°C 44% 2.7 mph SSW4.3 kmh SSW 4.0 mph6.4 kmh 30.17 in1021.7 mb 0.00 in0.0 mm 0.00 in/hr0.0 mm/hr 0.00 in0.0 mm
11:40 AM 48.8°F9.3°C 27.9°F-2.3°C 44% 0.9 mph SSE1.4 kmh SSE 1.0 mph1.6 kmh 30.16 in1021.3 mb 0.00 in0.0 mm 0.00 in/hr0.0 mm/hr 0.00 in0.0 mm
11:50 AM 49.2°F9.6°C 27.7°F-2.4°C 43% Calm Calm 1.0 mph1.6 kmh 30.15 in1021.0 mb 0.00 in0.0 mm 0.00 in/hr0.0 mm/hr 0.00 in0.0 mm
12:00 PM 49.3°F9.6°C 28.3°F-2.1°C 44% 0.3 mph SW0.5 kmh SW 2.0 mph3.2 kmh 30.15 in1021.0 mb 0.00 in0.0 mm 0.00 in/hr0.0 mm/hr 0.00 in0.0 mm
12:10 PM 49.0°F9.4°C 27.5°F-2.5°C 43% 1.3 mph SW2.1 kmh SW 3.0 mph4.8 kmh 30.14 in1020.7 mb 0.00 in0.0 mm 0.00 in/hr0.0 mm/hr 0.00 in0.0 mm
12:20 PM 49.6°F9.8°C 28.5°F-1.9°C 44% 0.4 mph S0.6 kmh S 2.0 mph3.2 kmh 30.14 in1020.7 mb 0.00 in0.0 mm 0.00 in/hr0.0 mm/hr 0.00 in0.0 mm
12:30 PM 50.7°F10.4°C 28.4°F-2.0°C 42% 1.4 mph E2.3 kmh E 2.0 mph3.2 kmh 30.14 in1020.7 mb 0.00 in0.0 mm 0.00 in/hr0.0 mm/hr 0.00 in0.0 mm
12:40 PM 51.7°F10.9°C 28.2°F-2.1°C 40% 0.5 mph SSE0.8 kmh SSE 2.0 mph3.2 kmh 30.14 in1020.7 mb 0.00 in0.0 mm 0.00 in/hr0.0 mm/hr 0.00 in0.0 mm
12:50 PM 52.2°F11.2°C 28.6°F-1.9°C 40% 0.1 mph SE0.2 kmh SE 1.0 mph1.6 kmh 30.13 in1020.3 mb 0.00 in0.0 mm 0.00 in/hr0.0 mm/hr 0.00 in0.0 mm
01:00 PM 53.2°F11.8°C 28.9°F-1.7°C 39% 1.7 mph SSW2.7 kmh SSW 2.0 mph3.2 kmh 30.13 in1020.3 mb 0.00 in0.0 mm 0.00 in/hr0.0 mm/hr 0.00 in0.0 mm
01:10 PM 53.7°F12.1°C 29.3°F-1.5°C 39% 0.9 mph SW1.4 kmh SW 2.0 mph3.2 kmh 30.13 in1020.3 mb 0.00 in0.0 mm 0.00 in/hr0.0 mm/hr 0.00 in0.0 mm
01:20 PM 54.5°F12.5°C 29.4°F-1.4°C 38% 1.1 mph SSW1.8 kmh SSW 2.0 mph3.2 kmh 30.13 in1020.3 mb 0.00 in0.0 mm 0.00 in/hr0.0 mm/hr 0.00 in0.0 mm
01:30 PM 54.7°F12.6°C 29.6°F-1.3°C 38% 1.5 mph WSW2.4 kmh WSW 3.0 mph4.8 kmh 30.13 in1020.3 mb 0.00 in0.0 mm 0.00 in/hr0.0 mm/hr 0.00 in0.0 mm
01:40 PM 55.3°F12.9°C 30.1°F-1.1°C 38% 2.4 mph SW3.9 kmh SW 4.0 mph6.4 kmh 30.13 in1020.3 mb 0.00 in0.0 mm 0.00 in/hr0.0 mm/hr 0.00 in0.0 mm
01:50 PM 54.9°F12.7°C 31.0°F-0.6°C 40% 1.1 mph SE1.8 kmh SE 3.0 mph4.8 kmh 30.13 in1020.3 mb 0.00 in0.0 mm 0.00 in/hr0.0 mm/hr 0.00 in0.0 mm
02:00 PM 55.5°F13.1°C 31.6°F-0.2°C 40% 0.9 mph WSW1.4 kmh WSW 3.0 mph4.8 kmh 30.12 in1020.0 mb 0.00 in0.0 mm 0.00 in/hr0.0 mm/hr 0.00 in0.0 mm
02:10 PM 56.3°F13.5°C 31.0°F-0.6°C 38% 2.6 mph SW4.2 kmh SW 9.0 mph14.5 kmh 30.13 in1020.3 mb 0.00 in0.0 mm 0.00 in/hr0.0 mm/hr 0.00 in0.0 mm
02:20 PM 55.9°F13.3°C 30.0°F-1.1°C 37% 3.7 mph SSW6.0 kmh SSW 7.0 mph11.3 kmh 30.13 in1020.3 mb 0.00 in0.0 mm 0.00 in/hr0.0 mm/hr 0.00 in0.0 mm
02:30 PM 55.7°F13.2°C 31.1°F-0.5°C 39% 1.9 mph SW3.1 kmh SW 3.0 mph4.8 kmh 30.12 in1020.0 mb 0.00 in0.0 mm 0.00 in/hr0.0 mm/hr 0.00 in0.0 mm
02:40 PM 55.2°F12.9°C 30.7°F-0.7°C 39% 2.4 mph S3.9 kmh S 7.0 mph11.3 kmh 30.13 in1020.3 mb 0.00 in0.0 mm 0.00 in/hr0.0 mm/hr 0.00 in0.0 mm
02:50 PM 55.2°F12.9°C 30.7°F-0.7°C 39% 1.1 mph SW1.8 kmh SW 2.0 mph3.2 kmh 30.13 in1020.3 mb 0.00 in0.0 mm 0.00 in/hr0.0 mm/hr 0.00 in0.0 mm
03:00 PM 55.0°F12.8°C 30.5°F-0.8°C 39% 1.9 mph SW3.1 kmh SW 2.0 mph3.2 kmh 30.13 in1020.3 mb 0.00 in0.0 mm 0.00 in/hr0.0 mm/hr 0.00 in0.0 mm
03:10 PM 55.3°F12.9°C 30.7°F-0.7°C 39% 1.9 mph SW3.1 kmh SW 4.0 mph6.4 kmh 30.14 in1020.7 mb 0.00 in0.0 mm 0.00 in/hr0.0 mm/hr 0.00 in0.0 mm
03:20 PM 54.8°F12.7°C 31.0°F-0.6°C 40% 2.3 mph SW3.7 kmh SW 4.0 mph6.4 kmh 30.13 in1020.3 mb 0.00 in0.0 mm 0.00 in/hr0.0 mm/hr 0.00 in0.0 mm
03:30 PM 54.5°F12.5°C 30.6°F-0.8°C 40% 1.0 mph S1.6 kmh S 2.0 mph3.2 kmh 30.13 in1020.3 mb 0.00 in0.0 mm 0.00 in/hr0.0 mm/hr 0.00 in0.0 mm
03:40 PM 54.4°F12.4°C 31.2°F-0.4°C 41% Calm Calm -- 30.12 in1020.0 mb 0.00 in0.0 mm 0.00 in/hr0.0 mm/hr 0.00 in0.0 mm
03:50 PM 54.0°F12.2°C 31.4°F-0.3°C 42% 0.6 mph SW1.0 kmh SW 1.0 mph1.6 kmh 30.12 in1020.0 mb 0.00 in0.0 mm 0.00 in/hr0.0 mm/hr 0.00 in0.0 mm
04:00 PM 53.4°F11.9°C 31.4°F-0.3°C 43% Calm Calm -- 30.13 in1020.3 mb 0.00 in0.0 mm 0.00 in/hr0.0 mm/hr 0.00 in0.0 mm
04:10 PM 52.6°F11.4°C 31.3°F-0.4°C 44% Calm Calm -- 30.12 in1020.0 mb 0.00 in0.0 mm 0.00 in/hr0.0 mm/hr 0.00 in0.0 mm
04:20 PM 51.5°F10.8°C 31.4°F-0.3°C 46% Calm Calm -- 30.12 in1020.0 mb 0.00 in0.0 mm 0.00 in/hr0.0 mm/hr 0.00 in0.0 mm
04:30 PM 50.5°F10.3°C 31.0°F-0.6°C 47% Calm Calm 1.0 mph1.6 kmh 30.12 in1020.0 mb 0.00 in0.0 mm 0.00 in/hr0.0 mm/hr 0.00 in0.0 mm
04:40 PM 49.6°F9.8°C 31.2°F-0.4°C 49% Calm Calm -- 30.13 in1020.3 mb 0.00 in0.0 mm 0.00 in/hr0.0 mm/hr 0.00 in0.0 mm
04:50 PM 48.9°F9.4°C 31.5°F-0.3°C 51% Calm Calm -- 30.13 in1020.3 mb 0.00 in0.0 mm 0.00 in/hr0.0 mm/hr 0.00 in0.0 mm
05:00 PM 48.1°F8.9°C 30.8°F-0.7°C 51% 0.7 mph SW1.1 kmh SW 2.0 mph3.2 kmh 30.13 in1020.3 mb 0.00 in0.0 mm 0.00 in/hr0.0 mm/hr 0.00 in0.0 mm
05:10 PM 48.0°F8.9°C 30.7°F-0.7°C 51% Calm Calm -- 30.13 in1020.3 mb 0.00 in0.0 mm 0.00 in/hr0.0 mm/hr 0.00 in0.0 mm
05:20 PM 47.9°F8.8°C 30.6°F-0.8°C 51% Calm Calm 1.0 mph1.6 kmh 30.12 in1020.0 mb 0.00 in0.0 mm 0.00 in/hr0.0 mm/hr 0.00 in0.0 mm
05:30 PM 47.6°F8.7°C 30.8°F-0.7°C 52% Calm Calm -- 30.12 in1020.0 mb 0.00 in0.0 mm 0.00 in/hr0.0 mm/hr 0.00 in0.0 mm
05:40 PM 47.2°F8.4°C 30.9°F-0.6°C 53% Calm Calm -- 30.12 in1020.0 mb 0.00 in0.0 mm 0.00 in/hr0.0 mm/hr 0.00 in0.0 mm
05:50 PM 46.9°F8.3°C 31.1°F-0.5°C 54% Calm Calm -- 30.13 in1020.3 mb 0.00 in0.0 mm 0.00 in/hr0.0 mm/hr 0.00 in0.0 mm
06:00 PM 46.3°F7.9°C 31.4°F-0.3°C 56% Calm Calm -- 30.13 in1020.3 mb 0.00 in0.0 mm 0.00 in/hr0.0 mm/hr 0.00 in0.0 mm
06:10 PM 46.4°F8.0°C 32.4°F0.2°C 58% Calm Calm -- 30.12 in1020.0 mb 0.00 in0.0 mm 0.00 in/hr0.0 mm/hr 0.00 in0.0 mm
06:20 PM 46.0°F7.8°C 32.5°F0.3°C 59% Calm Calm 1.0 mph1.6 kmh 30.13 in1020.3 mb 0.00 in0.0 mm 0.00 in/hr0.0 mm/hr 0.00 in0.0 mm
06:30 PM 46.2°F7.9°C 32.7°F0.4°C 59% Calm Calm 1.0 mph1.6 kmh 30.12 in1020.0 mb 0.00 in0.0 mm 0.00 in/hr0.0 mm/hr 0.00 in0.0 mm
06:40 PM 46.4°F8.0°C 32.8°F0.4°C 59% 0.2 mph E0.3 kmh E 3.0 mph4.8 kmh 30.12 in1020.0 mb 0.00 in0.0 mm 0.00 in/hr0.0 mm/hr 0.00 in0.0 mm
06:50 PM 46.4°F8.0°C 33.3°F0.7°C 60% 0.2 mph N0.3 kmh N -- 30.12 in1020.0 mb 0.00 in0.0 mm 0.00 in/hr0.0 mm/hr 0.00 in0.0 mm
07:00 PM 46.4°F8.0°C 33.3°F0.7°C 60% 0.5 mph SE0.8 kmh SE 1.0 mph1.6 kmh 30.11 in1019.6 mb 0.00 in0.0 mm 0.00 in/hr0.0 mm/hr 0.00 in0.0 mm
07:10 PM 45.9°F7.7°C 33.6°F0.9°C 62% Calm Calm -- 30.12 in1020.0 mb 0.00 in0.0 mm 0.00 in/hr0.0 mm/hr 0.00 in0.0 mm
07:20 PM 45.7°F7.6°C 34.2°F1.2°C 64% Calm Calm 1.0 mph1.6 kmh 30.12 in1020.0 mb 0.00 in0.0 mm 0.00 in/hr0.0 mm/hr 0.00 in0.0 mm
07:30 PM 45.6°F7.6°C 34.5°F1.4°C 65% Calm Calm -- 30.12 in1020.0 mb 0.00 in0.0 mm 0.00 in/hr0.0 mm/hr 0.00 in0.0 mm
07:40 PM 45.6°F7.6°C 34.9°F1.6°C 66% Calm Calm -- 30.12 in1020.0 mb 0.00 in0.0 mm 0.00 in/hr0.0 mm/hr 0.00 in0.0 mm
07:50 PM 45.4°F7.4°C 35.8°F2.1°C 69% Calm Calm -- 30.11 in1019.6 mb 0.00 in0.0 mm 0.00 in/hr0.0 mm/hr 0.00 in0.0 mm
08:00 PM 46.1°F7.8°C 36.1°F2.3°C 68% 0.3 mph SE0.5 kmh SE 1.0 mph1.6 kmh 30.11 in1019.6 mb 0.00 in0.0 mm 0.00 in/hr0.0 mm/hr 0.00 in0.0 mm
08:10 PM 46.0°F7.8°C 36.0°F2.2°C 68% Calm Calm -- 30.11 in1019.6 mb 0.00 in0.0 mm 0.00 in/hr0.0 mm/hr 0.00 in0.0 mm
08:20 PM 46.1°F7.8°C 36.5°F2.5°C 69% Calm Calm -- 30.10 in1019.3 mb 0.00 in0.0 mm 0.00 in/hr0.0 mm/hr 0.00 in0.0 mm
08:30 PM 45.9°F7.7°C 36.3°F2.4°C 69% 0.1 mph WSW0.2 kmh WSW -- 30.11 in1019.6 mb 0.00 in0.0 mm 0.00 in/hr0.0 mm/hr 0.00 in0.0 mm
08:40 PM 46.2°F7.9°C 37.3°F2.9°C 71% 0.1 mph NE0.2 kmh NE -- 30.11 in1019.6 mb 0.00 in0.0 mm 0.00 in/hr0.0 mm/hr 0.00 in0.0 mm
08:50 PM 46.5°F8.1°C 37.6°F3.1°C 71% 0.1 mph NNE0.2 kmh NNE 2.0 mph3.2 kmh 30.10 in1019.3 mb 0.00 in0.0 mm 0.00 in/hr0.0 mm/hr 0.00 in0.0 mm
09:00 PM 46.6°F8.1°C 37.7°F3.2°C 71% 0.3 mph NE0.5 kmh NE -- 30.09 in1019.0 mb 0.00 in0.0 mm 0.00 in/hr0.0 mm/hr 0.00 in0.0 mm
09:10 PM 46.4°F8.0°C 37.9°F3.3°C 72% Calm Calm 1.0 mph1.6 kmh 30.08 in1018.6 mb 0.00 in0.0 mm 0.00 in/hr0.0 mm/hr 0.00 in0.0 mm
09:20 PM 46.4°F8.0°C 38.2°F3.4°C 73% Calm Calm -- 30.08 in1018.6 mb 0.00 in0.0 mm 0.00 in/hr0.0 mm/hr 0.00 in0.0 mm
09:30 PM 46.3°F7.9°C 38.8°F3.8°C 75% Calm Calm -- 30.08 in1018.6 mb 0.00 in0.0 mm 0.00 in/hr0.0 mm/hr 0.00 in0.0 mm
09:40 PM 46.3°F7.9°C 39.5°F4.2°C 77% Calm Calm 1.0 mph1.6 kmh 30.07 in1018.3 mb 0.00 in0.0 mm 0.00 in/hr0.0 mm/hr 0.00 in0.0 mm
09:50 PM 46.2°F7.9°C 39.7°F4.3°C 78% 0.1 mph SW0.2 kmh SW -- 30.07 in1018.3 mb 0.00 in0.0 mm 0.00 in/hr0.0 mm/hr 0.00 in0.0 mm
10:00 PM 46.1°F7.8°C 40.3°F4.6°C 80% Calm Calm -- 30.07 in1018.3 mb 0.00 in0.0 mm 0.00 in/hr0.0 mm/hr 0.00 in0.0 mm
10:10 PM 46.6°F8.1°C 41.7°F5.4°C 83% 0.1 mph ENE0.2 kmh ENE -- 30.06 in1017.9 mb 0.00 in0.0 mm 0.00 in/hr0.0 mm/hr 0.00 in0.0 mm
10:20 PM 46.8°F8.2°C 41.9°F5.5°C 83% Calm Calm 1.0 mph1.6 kmh 30.06 in1017.9 mb 0.00 in0.0 mm 0.00 in/hr0.0 mm/hr 0.00 in0.0 mm
10:30 PM 47.0°F8.3°C 42.4°F5.8°C 84% Calm Calm -- 30.05 in1017.6 mb 0.00 in0.0 mm 0.00 in/hr0.0 mm/hr 0.00 in0.0 mm
10:40 PM 46.9°F8.3°C 42.3°F5.7°C 84% Calm Calm -- 30.04 in1017.3 mb 0.00 in0.0 mm 0.00 in/hr0.0 mm/hr 0.00 in0.0 mm
10:50 PM 47.1°F8.4°C 43.1°F6.2°C 86% Calm Calm -- 30.04 in1017.3 mb 0.00 in0.0 mm 0.00 in/hr0.0 mm/hr 0.00 in0.0 mm
11:00 PM 47.4°F8.6°C 43.4°F6.3°C 86% Calm Calm -- 30.03 in1016.9 mb 0.00 in0.0 mm 0.00 in/hr0.0 mm/hr 0.00 in0.0 mm
11:10 PM 47.5°F8.6°C 43.5°F6.4°C 86% Calm Calm 1.0 mph1.6 kmh 30.03 in1016.9 mb 0.00 in0.0 mm 0.00 in/hr0.0 mm/hr 0.00 in0.0 mm
11:20 PM 47.3°F8.5°C 43.0°F6.1°C 85% Calm Calm 1.0 mph1.6 kmh 30.02 in1016.6 mb 0.00 in0.0 mm 0.00 in/hr0.0 mm/hr 0.00 in0.0 mm
11:30 PM 47.1°F8.4°C 42.8°F6.0°C 85% Calm Calm -- 30.02 in1016.6 mb 0.00 in0.0 mm 0.00 in/hr0.0 mm/hr 0.00 in0.0 mm
11:40 PM 47.3°F8.5°C 43.4°F6.3°C 86% Calm Calm 1.0 mph1.6 kmh 30.01 in1016.3 mb 0.00 in0.0 mm 0.00 in/hr0.0 mm/hr 0.00 in0.0 mm
11:50 PM 47.5°F8.6°C 43.5°F6.4°C 86% 0.1 mph NW0.2 kmh NW 1.0 mph1.6 kmh 30.01 in1016.3 mb 0.00 in0.0 mm 0.00 in/hr0.0 mm/hr 0.00 in0.0 mm